Bookmark and Share
Track history (hours):
 

Capt. Ted

More information available from US FCC via Universal Licensing System and Coast Guard Vessel Documentation Center.

Last reported at 2014-Apr-19 19:32 UTC. Time now 2014-Apr-19 19:42 UTC.
Position N 39°08' W 076°24'.

Length 32 m; draft 2.8 m.

Type: Tug. MMSI: 367169710.

NotesDate/timePositionNaut miles runAvg speedWind from/ knotsBaromVisibWave heightAir tempDewpointWater temp
2014-Apr-19 19:32N 39°08' W 076°24'8 7.6
2014-Apr-19 18:28N 39°00' W 076°22'  
2014-Apr-13 03:16N 38°37' W 076°27'14 6.8
2014-Apr-13 01:13N 38°51' W 076°25'5 7.6
2014-Apr-13 00:32N 38°56' W 076°24'7 7.3
2014-Apr-12 23:31N 39°04' W 076°21'8 0.7
2014-Apr-12 12:22N 39°11' W 076°26'6 7.4
2014-Apr-12 11:34N 39°14' W 076°33'3 2.5
2014-Apr-12 10:33N 39°15' W 076°36'5 4.8
2014-Apr-12 09:34N 39°12' W 076°31'7 7.4
2014-Apr-12 08:34N 39°07' W 076°24'10 7.8
2014-Apr-12 07:20N 38°58' W 076°24'0 0.0
2014-Apr-10 23:33N 38°57' W 076°24'7 6.2
2014-Apr-10 22:22N 39°04' W 076°21'8 0.6
2014-Apr-10 08:30N 39°12' W 076°23'6 6.2
2014-Apr-10 07:33N 39°12' W 076°31'5 4.8
2014-Apr-10 06:33N 39°15' W 076°35'7 7.4
2014-Apr-10 05:34N 39°11' W 076°27'8 8.1
2014-Apr-10 04:33N 39°04' W 076°23'  

Dump ship's entire track history

sailing weather and tide predictions

Capt. Ted — WDD6210 — position and weather